sensor_id;sensor_type;location;lat;lon;timestamp;pressure;altitude;pressure_sealevel;temperature;humidity
56456;BME280;42354;53.218;6.564;2022-09-13T00:01:41;100648.00;;;17.73;100.00
56456;BME280;42354;53.218;6.564;2022-09-13T00:04:06;100650.00;;;17.71;100.00
56456;BME280;42354;53.218;6.564;2022-09-13T00:06:31;100644.56;;;17.71;100.00
56456;BME280;42354;53.218;6.564;2022-09-13T00:08:57;100648.28;;;17.70;100.00
56456;BME280;42354;53.218;6.564;2022-09-13T00:11:25;100644.97;;;17.66;100.00
56456;BME280;42354;53.218;6.564;2022-09-13T00:13:52;100640.47;;;17.65;100.00
56456;BME280;42354;53.218;6.564;2022-09-13T00:16:19;100631.81;;;17.60;100.00
56456;BME280;42354;53.218;6.564;2022-09-13T00:18:46;100630.69;;;17.63;100.00
56456;BME280;42354;53.218;6.564;2022-09-13T00:21:14;100624.78;;;17.58;100.00
56456;BME280;42354;53.218;6.564;2022-09-13T00:23:43;100615.00;;;17.55;100.00
56456;BME280;42354;53.218;6.564;2022-09-13T00:26:12;100609.81;;;17.52;100.00
56456;BME280;42354;53.218;6.564;2022-09-13T00:28:38;100600.91;;;17.50;100.00
56456;BME280;42354;53.218;6.564;2022-09-13T00:31:05;100607.34;;;17.49;100.00
56456;BME280;42354;53.218;6.564;2022-09-13T00:33:31;100603.91;;;17.47;100.00
56456;BME280;42354;53.218;6.564;2022-09-13T00:35:57;100599.31;;;17.48;100.00
56456;BME280;42354;53.218;6.564;2022-09-13T00:38:22;100597.59;;;17.47;100.00
56456;BME280;42354;53.218;6.564;2022-09-13T00:40:48;100598.44;;;17.47;100.00
56456;BME280;42354;53.218;6.564;2022-09-13T00:43:18;100603.31;;;17.44;100.00
56456;BME280;42354;53.218;6.564;2022-09-13T00:45:46;100596.97;;;17.43;100.00
56456;BME280;42354;53.218;6.564;2022-09-13T00:48:21;100585.22;;;17.43;100.00
56456;BME280;42354;53.218;6.564;2022-09-13T00:50:52;100585.34;;;17.41;100.00
56456;BME280;42354;53.218;6.564;2022-09-13T00:53:25;100584.47;;;17.40;100.00
56456;BME280;42354;53.218;6.564;2022-09-13T00:56:03;100588.22;;;17.39;100.00
56456;BME280;42354;53.218;6.564;2022-09-13T00:58:34;100580.16;;;17.38;100.00
56456;BME280;42354;53.218;6.564;2022-09-13T01:01:01;100573.72;;;17.39;100.00
56456;BME280;42354;53.218;6.564;2022-09-13T01:03:30;100568.25;;;17.39;100.00
56456;BME280;42354;53.218;6.564;2022-09-13T01:06:10;100572.97;;;17.37;100.00
56456;BME280;42354;53.218;6.564;2022-09-13T01:08:38;100560.06;;;17.39;100.00
56456;BME280;42354;53.218;6.564;2022-09-13T01:11:05;100555.34;;;17.41;100.00
56456;BME280;42354;53.218;6.564;2022-09-13T01:13:37;100564.53;;;17.40;100.00
56456;BME280;42354;53.218;6.564;2022-09-13T01:16:03;100562.81;;;17.39;100.00
56456;BME280;42354;53.218;6.564;2022-09-13T01:18:28;100551.91;;;17.39;100.00
56456;BME280;42354;53.218;6.564;2022-09-13T01:26:41;100550.56;;;17.33;100.00
56456;BME280;42354;53.218;6.564;2022-09-13T01:32:34;100545.84;;;17.35;100.00
56456;BME280;42354;53.218;6.564;2022-09-13T01:37:34;100544.84;;;17.36;100.00
56456;BME280;42354;53.218;6.564;2022-09-13T01:43:39;100521.44;;;17.34;100.00
56456;BME280;42354;53.218;6.564;2022-09-13T01:51:11;100525.22;;;17.43;100.00
56456;BME280;42354;53.218;6.564;2022-09-13T01:53:56;100524.38;;;17.42;100.00
56456;BME280;42354;53.218;6.564;2022-09-13T01:56:30;100519.63;;;17.44;100.00
56456;BME280;42354;53.218;6.564;2022-09-13T01:59:01;100508.88;;;17.43;100.00
56456;BME280;42354;53.218;6.564;2022-09-13T02:01:33;100516.91;;;17.44;100.00
56456;BME280;42354;53.218;6.564;2022-09-13T02:04:07;100519.50;;;17.46;100.00
56456;BME280;42354;53.218;6.564;2022-09-13T02:06:46;100518.63;;;17.45;100.00
56456;BME280;42354;53.218;6.564;2022-09-13T02:09:18;100513.19;;;17.45;100.00
56456;BME280;42354;53.218;6.564;2022-09-13T02:11:49;100514.91;;;17.46;100.00
56456;BME280;42354;53.218;6.564;2022-09-13T02:14:30;100524.97;;;17.46;100.00
56456;BME280;42354;53.218;6.564;2022-09-13T02:17:03;100520.59;;;17.33;100.00
56456;BME280;42354;53.218;6.564;2022-09-13T02:20:02;100510.00;;;17.40;100.00
56456;BME280;42354;53.218;6.564;2022-09-13T02:22:38;100508.00;;;17.42;100.00
56456;BME280;42354;53.218;6.564;2022-09-13T02:25:11;100507.13;;;17.42;100.00
56456;BME280;42354;53.218;6.564;2022-09-13T02:27:40;100517.91;;;17.43;100.00
56456;BME280;42354;53.218;6.564;2022-09-13T02:30:08;100514.03;;;17.46;100.00
56456;BME280;42354;53.218;6.564;2022-09-13T02:32:40;100507.47;;;17.48;100.00
56456;BME280;42354;53.218;6.564;2022-09-13T02:35:36;100501.28;;;17.46;100.00
56456;BME280;42354;53.218;6.564;2022-09-13T02:38:11;100503.88;;;17.48;100.00
56456;BME280;42354;53.218;6.564;2022-09-13T02:40:42;100514.50;;;17.51;100.00
56456;BME280;42354;53.218;6.564;2022-09-13T02:43:19;100516.81;;;17.55;100.00
56456;BME280;42354;53.218;6.564;2022-09-13T02:45:57;100510.50;;;17.55;100.00
56456;BME280;42354;53.218;6.564;2022-09-13T02:48:44;100510.63;;;17.53;100.00
56456;BME280;42354;53.218;6.564;2022-09-13T02:56:48;100514.81;;;17.57;100.00
56456;BME280;42354;53.218;6.564;2022-09-13T02:59:20;100515.63;;;17.69;100.00
56456;BME280;42354;53.218;6.564;2022-09-13T03:02:08;100523.81;;;17.69;100.00
56456;BME280;42354;53.218;6.564;2022-09-13T03:04:35;100531.97;;;17.69;100.00
56456;BME280;42354;53.218;6.564;2022-09-13T03:07:01;100521.94;;;17.69;100.00
56456;BME280;42354;53.218;6.564;2022-09-13T03:09:30;100538.22;;;17.60;100.00
56456;BME280;42354;53.218;6.564;2022-09-13T03:25:58;100540.88;;;17.20;100.00
56456;BME280;42354;53.218;6.564;2022-09-13T03:28:52;100542.59;;;17.21;100.00
56456;BME280;42354;53.218;6.564;2022-09-13T03:31:56;100538.03;;;17.21;100.00
56456;BME280;42354;53.218;6.564;2022-09-13T03:40:08;100547.59;;;17.16;100.00
56456;BME280;42354;53.218;6.564;2022-09-13T03:45:05;100533.50;;;17.11;100.00
56456;BME280;42354;53.218;6.564;2022-09-13T03:47:35;100536.50;;;17.07;100.00
56456;BME280;42354;53.218;6.564;2022-09-13T03:50:03;100542.22;;;17.04;100.00
56456;BME280;42354;53.218;6.564;2022-09-13T03:52:30;100543.34;;;17.02;100.00
56456;BME280;42354;53.218;6.564;2022-09-13T03:54:56;100541.63;;;17.01;100.00
56456;BME280;42354;53.218;6.564;2022-09-13T03:57:22;100546.22;;;17.00;100.00
56456;BME280;42354;53.218;6.564;2022-09-13T03:59:53;100544.75;;;16.96;100.00
56456;BME280;42354;53.218;6.564;2022-09-13T04:02:20;100555.91;;;16.93;100.00
56456;BME280;42354;53.218;6.564;2022-09-13T04:04:47;100543.00;;;16.95;100.00
56456;BME280;42354;53.218;6.564;2022-09-13T04:07:18;100547.72;;;16.93;100.00
56456;BME280;42354;53.218;6.564;2022-09-13T04:09:44;100552.78;;;16.98;100.00
56456;BME280;42354;53.218;6.564;2022-09-13T04:12:10;100558.84;;;17.01;100.00
56456;BME280;42354;53.218;6.564;2022-09-13T04:14:38;100562.56;;;17.00;100.00
56456;BME280;42354;53.218;6.564;2022-09-13T04:17:03;100557.56;;;17.05;100.00
56456;BME280;42354;53.218;6.564;2022-09-13T04:19:29;100565.75;;;17.05;100.00
56456;BME280;42354;53.218;6.564;2022-09-13T04:21:55;100558.56;;;17.04;100.00
56456;BME280;42354;53.218;6.564;2022-09-13T04:24:26;100565.63;;;17.07;100.00
56456;BME280;42354;53.218;6.564;2022-09-13T04:26:51;100564.63;;;17.08;100.00
56456;BME280;42354;53.218;6.564;2022-09-13T04:29:18;100562.63;;;17.10;100.00
56456;BME280;42354;53.218;6.564;2022-09-13T04:31:44;100561.88;;;17.08;100.00
56456;BME280;42354;53.218;6.564;2022-09-13T04:34:10;100546.41;;;17.08;100.00
56456;BME280;42354;53.218;6.564;2022-09-13T04:36:35;100551.00;;;17.08;100.00
56456;BME280;42354;53.218;6.564;2022-09-13T04:39:01;100551.00;;;17.08;100.00
56456;BME280;42354;53.218;6.564;2022-09-13T04:41:27;100548.25;;;17.08;100.00
56456;BME280;42354;53.218;6.564;2022-09-13T04:43:53;100551.84;;;17.08;100.00
56456;BME280;42354;53.218;6.564;2022-09-13T04:46:18;100554.56;;;17.08;100.00
56456;BME280;42354;53.218;6.564;2022-09-13T04:48:49;100555.44;;;17.09;100.00
56456;BME280;42354;53.218;6.564;2022-09-13T04:51:14;100549.13;;;17.08;100.00
56456;BME280;42354;53.218;6.564;2022-09-13T04:53:42;100561.75;;;17.10;100.00
56456;BME280;42354;53.218;6.564;2022-09-13T04:56:09;100562.03;;;17.06;100.00
56456;BME280;42354;53.218;6.564;2022-09-13T04:58:35;100561.03;;;17.07;100.00
56456;BME280;42354;53.218;6.564;2022-09-13T05:01:02;100571.94;;;17.07;100.00
56456;BME280;42354;53.218;6.564;2022-09-13T05:03:30;100562.63;;;17.10;100.00
56456;BME280;42354;53.218;6.564;2022-09-13T05:06:09;100566.34;;;17.09;100.00
56456;BME280;42354;53.218;6.564;2022-09-13T05:08:35;100571.06;;;17.07;100.00
56456;BME280;42354;53.218;6.564;2022-09-13T05:11:01;100576.38;;;17.08;100.00
56456;BME280;42354;53.218;6.564;2022-09-13T05:13:27;100586.69;;;17.05;100.00
56456;BME280;42354;53.218;6.564;2022-09-13T05:16:00;100585.81;;;17.04;100.00
56456;BME280;42354;53.218;6.564;2022-09-13T05:18:28;100586.81;;;17.03;100.00
56456;BME280;42354;53.218;6.564;2022-09-13T05:20:54;100584.97;;;17.04;100.00
56456;BME280;42354;53.218;6.564;2022-09-13T05:23:21;100583.09;;;17.04;100.00
56456;BME280;42354;53.218;6.564;2022-09-13T05:26:01;100579.63;;;17.02;100.00
56456;BME280;42354;53.218;6.564;2022-09-13T05:28:29;100590.41;;;17.04;100.00
56456;BME280;42354;53.218;6.564;2022-09-13T05:31:01;100592.78;;;16.97;100.00
56456;BME280;42354;53.218;6.564;2022-09-13T05:33:28;100594.66;;;16.97;100.00
56456;BME280;42354;53.218;6.564;2022-09-13T05:35:54;100590.59;;;16.91;100.00
56456;BME280;42354;53.218;6.564;2022-09-13T05:38:20;100600.28;;;16.84;100.00
56456;BME280;42354;53.218;6.564;2022-09-13T05:40:46;100602.78;;;16.76;100.00
56456;BME280;42354;53.218;6.564;2022-09-13T05:43:12;100606.38;;;16.77;100.00
56456;BME280;42354;53.218;6.564;2022-09-13T05:45:39;100597.22;;;16.78;100.00
56456;BME280;42354;53.218;6.564;2022-09-13T05:48:04;100602.53;;;16.79;100.00
56456;BME280;42354;53.218;6.564;2022-09-13T05:50:29;100601.41;;;16.82;100.00
56456;BME280;42354;53.218;6.564;2022-09-13T05:52:55;100598.28;;;16.86;100.00
56456;BME280;42354;53.218;6.564;2022-09-13T05:55:21;100595.31;;;16.89;100.00
56456;BME280;42354;53.218;6.564;2022-09-13T05:57:47;100587.88;;;16.91;100.00
56456;BME280;42354;53.218;6.564;2022-09-13T06:00:14;100593.78;;;16.96;100.00
56456;BME280;42354;53.218;6.564;2022-09-13T06:02:39;100598.72;;;17.02;100.00
56456;BME280;42354;53.218;6.564;2022-09-13T06:05:06;100613.06;;;17.04;100.00
56456;BME280;42354;53.218;6.564;2022-09-13T06:07:32;100610.09;;;17.07;100.00
56456;BME280;42354;53.218;6.564;2022-09-13T06:09:57;100606.63;;;17.05;100.00
56456;BME280;42354;53.218;6.564;2022-09-13T06:12:23;100611.06;;;17.06;100.00
56456;BME280;42354;53.218;6.564;2022-09-13T06:14:48;100614.28;;;17.12;100.00
56456;BME280;42354;53.218;6.564;2022-09-13T06:17:13;100615.00;;;17.14;100.00
56456;BME280;42354;53.218;6.564;2022-09-13T06:19:39;100618.72;;;17.13;100.00
56456;BME280;42354;53.218;6.564;2022-09-13T06:22:04;100614.75;;;17.17;100.00
56456;BME280;42354;53.218;6.564;2022-09-13T06:24:30;100610.03;;;17.19;100.00
56456;BME280;42354;53.218;6.564;2022-09-13T06:26:55;100614.75;;;17.17;100.00
56456;BME280;42354;53.218;6.564;2022-09-13T06:29:20;100619.19;;;17.18;100.00
56456;BME280;42354;53.218;6.564;2022-09-13T06:31:46;100623.66;;;17.19;100.00
56456;BME280;42354;53.218;6.564;2022-09-13T06:34:12;100614.47;;;17.20;100.00
56456;BME280;42354;53.218;6.564;2022-09-13T06:36:39;100623.13;;;17.25;100.00
56456;BME280;42354;53.218;6.564;2022-09-13T06:39:05;100617.41;;;17.28;100.00
56456;BME280;42354;53.218;6.564;2022-09-13T06:41:30;100615.00;;;17.34;100.00
56456;BME280;42354;53.218;6.564;2022-09-13T06:43:58;100613.75;;;17.38;100.00
56456;BME280;42354;53.218;6.564;2022-09-13T06:46:25;100619.78;;;17.42;100.00
56456;BME280;42354;53.218;6.564;2022-09-13T06:48:51;100610.47;;;17.45;100.00
56456;BME280;42354;53.218;6.564;2022-09-13T06:51:19;100609.94;;;17.51;100.00
56456;BME280;42354;53.218;6.564;2022-09-13T06:53:47;100620.19;;;17.58;100.00
56456;BME280;42354;53.218;6.564;2022-09-13T06:56:23;100620.41;;;17.66;100.00
56456;BME280;42354;53.218;6.564;2022-09-13T06:58:50;100619.00;;;17.72;100.00
56456;BME280;42354;53.218;6.564;2022-09-13T07:03:49;100623.22;;;17.86;100.00
56456;BME280;42354;53.218;6.564;2022-09-13T07:06:33;100626.47;;;18.00;100.00
56456;BME280;42354;53.218;6.564;2022-09-13T07:09:01;100630.69;;;18.14;100.00
56456;BME280;42354;53.218;6.564;2022-09-13T07:11:30;100632.13;;;18.18;100.00
56456;BME280;42354;53.218;6.564;2022-09-13T07:13:57;100637.03;;;18.24;100.00
56456;BME280;42354;53.218;6.564;2022-09-13T07:16:28;100647.81;;;18.26;100.00
56456;BME280;42354;53.218;6.564;2022-09-13T07:19:03;100644.25;;;18.35;100.00
56456;BME280;42354;53.218;6.564;2022-09-13T07:21:32;100655.91;;;18.37;100.00
56456;BME280;42354;53.218;6.564;2022-09-13T07:23:58;100658.34;;;18.40;100.00
56456;BME280;42354;53.218;6.564;2022-09-13T07:26:24;100663.97;;;18.39;100.00
56456;BME280;42354;53.218;6.564;2022-09-13T07:28:53;100656.63;;;18.39;100.00
56456;BME280;42354;53.218;6.564;2022-09-13T07:31:20;100669.00;;;18.43;100.00
56456;BME280;42354;53.218;6.564;2022-09-13T07:33:47;100678.03;;;18.34;100.00
56456;BME280;42354;53.218;6.564;2022-09-13T07:36:16;100676.16;;;18.34;98.69
56456;BME280;42354;53.218;6.564;2022-09-13T07:38:42;100678.72;;;18.26;96.49
56456;BME280;42354;53.218;6.564;2022-09-13T07:41:19;100681.19;;;18.29;94.03
56456;BME280;42354;53.218;6.564;2022-09-13T07:43:45;100677.16;;;18.33;94.05
56456;BME280;42354;53.218;6.564;2022-09-13T07:46:13;100676.34;;;18.43;92.30
56456;BME280;42354;53.218;6.564;2022-09-13T07:48:40;100672.91;;;18.50;91.50
56456;BME280;42354;53.218;6.564;2022-09-13T07:51:08;100684.00;;;18.58;89.31
56456;BME280;42354;53.218;6.564;2022-09-13T07:53:35;100683.63;;;18.63;89.01
56456;BME280;42354;53.218;6.564;2022-09-13T07:56:07;100686.94;;;18.76;86.78
56456;BME280;42354;53.218;6.564;2022-09-13T07:58:34;100684.50;;;18.73;86.58
56456;BME280;42354;53.218;6.564;2022-09-13T08:03:34;100692.28;;;18.78;86.20
56456;BME280;42354;53.218;6.564;2022-09-13T08:06:00;100687.25;;;18.83;86.60
56456;BME280;42354;53.218;6.564;2022-09-13T08:08:27;100684.25;;;18.86;86.60
56456;BME280;42354;53.218;6.564;2022-09-13T08:10:52;100693.59;;;18.83;86.08
56456;BME280;42354;53.218;6.564;2022-09-13T08:13:18;100694.72;;;18.81;85.96
56456;BME280;42354;53.218;6.564;2022-09-13T08:15:43;100700.19;;;18.81;85.74
56456;BME280;42354;53.218;6.564;2022-09-13T08:18:09;100695.03;;;18.87;83.38
56456;BME280;42354;53.218;6.564;2022-09-13T08:20:35;100701.38;;;18.97;83.32
56456;BME280;42354;53.218;6.564;2022-09-13T08:23:02;100704.28;;;19.25;80.57
56456;BME280;42354;53.218;6.564;2022-09-13T08:25:27;100707.16;;;19.33;77.81
56456;BME280;42354;53.218;6.564;2022-09-13T08:27:52;100701.09;;;19.29;78.12
56456;BME280;42354;53.218;6.564;2022-09-13T08:30:18;100708.00;;;19.43;77.08
56456;BME280;42354;53.218;6.564;2022-09-13T08:32:43;100707.16;;;19.62;78.49
56456;BME280;42354;53.218;6.564;2022-09-13T08:35:08;100714.47;;;19.81;75.24
56456;BME280;42354;53.218;6.564;2022-09-13T08:37:34;100711.75;;;19.81;70.50
56456;BME280;42354;53.218;6.564;2022-09-13T08:39:59;100716.81;;;19.66;70.91
56456;BME280;42354;53.218;6.564;2022-09-13T08:42:49;100714.38;;;19.63;69.53
56456;BME280;42354;53.218;6.564;2022-09-13T08:45:15;100708.31;;;19.59;68.78
56456;BME280;42354;53.218;6.564;2022-09-13T08:47:46;100704.84;;;19.67;67.18
56456;BME280;42354;53.218;6.564;2022-09-13T08:50:25;100709.91;;;19.62;68.01
56456;BME280;42354;53.218;6.564;2022-09-13T08:53:21;100715.50;;;19.80;67.04
56456;BME280;42354;53.218;6.564;2022-09-13T09:00:58;100711.56;;;20.02;66.00
56456;BME280;42354;53.218;6.564;2022-09-13T09:05:58;100719.13;;;19.61;62.48
56456;BME280;42354;53.218;6.564;2022-09-13T09:08:30;100716.78;;;19.47;63.90
56456;BME280;42354;53.218;6.564;2022-09-13T09:11:02;100721.28;;;19.57;64.13
56456;BME280;42354;53.218;6.564;2022-09-13T09:13:41;100719.25;;;19.69;64.51
56456;BME280;42354;53.218;6.564;2022-09-13T09:16:38;100726.69;;;19.96;64.11
56456;BME280;42354;53.218;6.564;2022-09-13T09:19:32;100720.31;;;20.15;63.95
56456;BME280;42354;53.218;6.564;2022-09-13T09:22:03;100724.88;;;20.24;63.58
56456;BME280;42354;53.218;6.564;2022-09-13T09:24:33;100727.75;;;20.32;62.54
56456;BME280;42354;53.218;6.564;2022-09-13T09:27:01;100726.47;;;20.26;62.79
56456;BME280;42354;53.218;6.564;2022-09-13T09:29:35;100728.19;;;20.27;61.58
56456;BME280;42354;53.218;6.564;2022-09-13T09:32:18;100724.34;;;20.11;61.89
56456;BME280;42354;53.218;6.564;2022-09-13T09:35:10;100723.47;;;20.20;61.36
56456;BME280;42354;53.218;6.564;2022-09-13T09:37:38;100729.34;;;20.25;61.98
56456;BME280;42354;53.218;6.564;2022-09-13T09:40:08;100724.41;;;20.48;59.95
56456;BME280;42354;53.218;6.564;2022-09-13T09:42:46;100721.03;;;20.54;61.05
56456;BME280;42354;53.218;6.564;2022-09-13T09:45:27;100713.50;;;20.66;60.38
56456;BME280;42354;53.218;6.564;2022-09-13T09:47:54;100716.31;;;20.83;59.82
56456;BME280;42354;53.218;6.564;2022-09-13T09:50:23;100716.41;;;20.91;59.94
56456;BME280;42354;53.218;6.564;2022-09-13T09:53:02;100717.34;;;21.00;59.43
56456;BME280;42354;53.218;6.564;2022-09-13T09:55:31;100713.44;;;21.03;59.07
56456;BME280;42354;53.218;6.564;2022-09-13T09:58:04;100714.75;;;21.26;58.88
56456;BME280;42354;53.218;6.564;2022-09-13T10:00:49;100716.63;;;21.26;58.65
56456;BME280;42354;53.218;6.564;2022-09-13T10:03:20;100719.41;;;21.16;59.38
56456;BME280;42354;53.218;6.564;2022-09-13T10:05:48;100720.78;;;20.75;62.19
56456;BME280;42354;53.218;6.564;2022-09-13T10:08:30;100702.63;;;20.37;61.53
56456;BME280;42354;53.218;6.564;2022-09-13T10:10:57;100723.53;;;19.91;63.49
56456;BME280;42354;53.218;6.564;2022-09-13T10:13:24;100721.25;;;19.86;63.95
56456;BME280;42354;53.218;6.564;2022-09-13T10:18:28;100722.41;;;19.84;63.84
56456;BME280;42354;53.218;6.564;2022-09-13T10:23:44;100719.78;;;20.48;61.67
56456;BME280;42354;53.218;6.564;2022-09-13T10:26:14;100716.00;;;20.86;59.82
56456;BME280;42354;53.218;6.564;2022-09-13T10:28:52;100715.66;;;21.17;57.09
56456;BME280;42354;53.218;6.564;2022-09-13T10:31:30;100709.28;;;20.71;57.90
56456;BME280;42354;53.218;6.564;2022-09-13T10:33:58;100715.63;;;20.35;58.70
56456;BME280;42354;53.218;6.564;2022-09-13T10:36:30;100722.59;;;20.19;60.00
56456;BME280;42354;53.218;6.564;2022-09-13T10:38:59;100719.19;;;20.54;59.58
56456;BME280;42354;53.218;6.564;2022-09-13T10:41:29;100714.97;;;20.87;58.08
56456;BME280;42354;53.218;6.564;2022-09-13T10:44:01;100725.66;;;21.08;57.81
56456;BME280;42354;53.218;6.564;2022-09-13T10:46:29;100722.25;;;21.42;57.23
56456;BME280;42354;53.218;6.564;2022-09-13T10:48:56;100716.34;;;21.72;54.34
56456;BME280;42354;53.218;6.564;2022-09-13T10:51:34;100723.84;;;21.88;53.57
56456;BME280;42354;53.218;6.564;2022-09-13T10:54:22;100713.78;;;21.53;51.92
56456;BME280;42354;53.218;6.564;2022-09-13T10:56:51;100721.97;;;21.00;53.57
56456;BME280;42354;53.218;6.564;2022-09-13T10:59:23;100720.22;;;20.81;54.62
56456;BME280;42354;53.218;6.564;2022-09-13T11:02:09;100714.03;;;20.69;55.77
56456;BME280;42354;53.218;6.564;2022-09-13T11:13:40;100728.31;;;21.45;50.48
56456;BME280;42354;53.218;6.564;2022-09-13T11:16:27;100728.28;;;21.63;49.20
56456;BME280;42354;53.218;6.564;2022-09-13T11:21:37;100721.56;;;21.58;52.15
56456;BME280;42354;53.218;6.564;2022-09-13T11:24:35;100723.31;;;21.84;50.44
56456;BME280;42354;53.218;6.564;2022-09-13T11:30:22;100726.56;;;21.62;50.23
56456;BME280;42354;53.218;6.564;2022-09-13T11:32:57;100727.88;;;21.76;49.54
56456;BME280;42354;53.218;6.564;2022-09-13T11:35:36;100733.44;;;21.84;51.32
56456;BME280;42354;53.218;6.564;2022-09-13T11:48:59;100728.84;;;21.31;54.19
56456;BME280;42354;53.218;6.564;2022-09-13T11:54:18;100729.94;;;21.74;53.74
56456;BME280;42354;53.218;6.564;2022-09-13T11:56:52;100726.00;;;21.76;53.76
56456;BME280;42354;53.218;6.564;2022-09-13T11:59:45;100716.81;;;21.85;52.76
56456;BME280;42354;53.218;6.564;2022-09-13T12:02:30;100708.22;;;21.63;52.73
56456;BME280;42354;53.218;6.564;2022-09-13T12:05:03;100715.75;;;21.43;54.15
56456;BME280;42354;53.218;6.564;2022-09-13T12:07:40;100713.72;;;21.45;53.41
56456;BME280;42354;53.218;6.564;2022-09-13T12:10:42;100710.88;;;21.19;54.22
56456;BME280;42354;53.218;6.564;2022-09-13T12:13:29;100714.69;;;21.08;54.49
56456;BME280;42354;53.218;6.564;2022-09-13T12:16:02;100718.78;;;21.04;54.72
56456;BME280;42354;53.218;6.564;2022-09-13T12:18:41;100710.38;;;21.06;54.39
56456;BME280;42354;53.218;6.564;2022-09-13T12:21:11;100701.69;;;21.10;54.84
56456;BME280;42354;53.218;6.564;2022-09-13T12:23:46;100719.81;;;21.21;55.70
56456;BME280;42354;53.218;6.564;2022-09-13T12:28:53;100718.66;;;21.59;54.69
56456;BME280;42354;53.218;6.564;2022-09-13T12:31:21;100712.00;;;21.26;54.97
56456;BME280;42354;53.218;6.564;2022-09-13T12:33:48;100727.63;;;21.16;55.87
56456;BME280;42354;53.218;6.564;2022-09-13T12:39:10;100728.72;;;20.78;56.01
56456;BME280;42354;53.218;6.564;2022-09-13T12:41:52;100724.59;;;20.64;56.78
56456;BME280;42354;53.218;6.564;2022-09-13T12:44:37;100714.59;;;20.73;56.36
56456;BME280;42354;53.218;6.564;2022-09-13T12:47:32;100745.16;;;20.78;55.86
56456;BME280;42354;53.218;6.564;2022-09-13T12:50:08;100728.16;;;21.02;55.77
56456;BME280;42354;53.218;6.564;2022-09-13T12:55:48;100715.31;;;21.02;55.07
56456;BME280;42354;53.218;6.564;2022-09-13T13:03:26;100718.28;;;21.36;54.11
56456;BME280;42354;53.218;6.564;2022-09-13T13:06:10;100726.22;;;21.12;54.14
56456;BME280;42354;53.218;6.564;2022-09-13T13:08:49;100721.34;;;21.06;54.60
56456;BME280;42354;53.218;6.564;2022-09-13T13:11:16;100716.56;;;20.90;54.62
56456;BME280;42354;53.218;6.564;2022-09-13T13:14:01;100715.88;;;20.78;54.42
56456;BME280;42354;53.218;6.564;2022-09-13T13:16:38;100719.94;;;20.74;54.54
56456;BME280;42354;53.218;6.564;2022-09-13T13:19:29;100712.31;;;20.68;53.86
56456;BME280;42354;53.218;6.564;2022-09-13T13:22:13;100719.59;;;20.59;54.50
56456;BME280;42354;53.218;6.564;2022-09-13T13:24:46;100706.28;;;20.65;53.56
56456;BME280;42354;53.218;6.564;2022-09-13T13:27:35;100702.16;;;20.51;54.38
56456;BME280;42354;53.218;6.564;2022-09-13T13:33:11;100713.22;;;20.59;53.24
56456;BME280;42354;53.218;6.564;2022-09-13T13:35:41;100715.63;;;20.35;54.91
56456;BME280;42354;53.218;6.564;2022-09-13T13:40:41;100715.97;;;20.59;54.34
56456;BME280;42354;53.218;6.564;2022-09-13T13:43:36;100707.84;;;20.40;54.43
56456;BME280;42354;53.218;6.564;2022-09-13T13:48:40;100710.28;;;20.43;52.59
56456;BME280;42354;53.218;6.564;2022-09-13T13:51:17;100706.84;;;20.41;52.21
56456;BME280;42354;53.218;6.564;2022-09-13T13:53:49;100713.03;;;20.43;51.97
56456;BME280;42354;53.218;6.564;2022-09-13T13:56:48;100708.38;;;20.53;52.06
56456;BME280;42354;53.218;6.564;2022-09-13T13:59:18;100708.78;;;20.85;51.20
56456;BME280;42354;53.218;6.564;2022-09-13T14:01:51;100693.75;;;20.89;51.67
56456;BME280;42354;53.218;6.564;2022-09-13T14:04:41;100703.00;;;20.88;52.44
56456;BME280;42354;53.218;6.564;2022-09-13T14:20:20;100683.81;;;20.24;54.42
56456;BME280;42354;53.218;6.564;2022-09-13T14:22:46;100692.66;;;20.08;54.52
56456;BME280;42354;53.218;6.564;2022-09-13T14:25:29;100700.22;;;19.87;55.42
56456;BME280;42354;53.218;6.564;2022-09-13T14:27:57;100701.06;;;19.87;55.52
56456;BME280;42354;53.218;6.564;2022-09-13T14:30:43;100700.78;;;19.90;55.36
56456;BME280;42354;53.218;6.564;2022-09-13T14:33:20;100690.50;;;20.02;55.20
56456;BME280;42354;53.218;6.564;2022-09-13T14:35:56;100686.09;;;19.91;55.35
56456;BME280;42354;53.218;6.564;2022-09-13T14:38:25;100683.19;;;19.93;55.37
56456;BME280;42354;53.218;6.564;2022-09-13T14:40:58;100682.59;;;19.99;55.20
56456;BME280;42354;53.218;6.564;2022-09-13T14:43:25;100692.41;;;19.92;54.81
56456;BME280;42354;53.218;6.564;2022-09-13T14:45:58;100695.19;;;19.73;54.69
56456;BME280;42354;53.218;6.564;2022-09-13T14:48:50;100706.00;;;19.64;54.56
56456;BME280;42354;53.218;6.564;2022-09-13T14:53:48;100665.56;;;19.29;55.04
56456;BME280;42354;53.218;6.564;2022-09-13T15:01:55;100718.53;;;19.48;53.86
56456;BME280;42354;53.218;6.564;2022-09-13T15:04:24;100705.84;;;19.47;54.30
56456;BME280;42354;53.218;6.564;2022-09-13T15:07:16;100710.47;;;19.37;54.68
56456;BME280;42354;53.218;6.564;2022-09-13T15:09:45;100707.19;;;19.52;54.39
56456;BME280;42354;53.218;6.564;2022-09-13T15:12:22;100718.25;;;19.70;54.62
56456;BME280;42354;53.218;6.564;2022-09-13T15:15:18;100722.84;;;19.50;54.97
56456;BME280;42354;53.218;6.564;2022-09-13T15:17:55;100728.78;;;19.55;55.57
56456;BME280;42354;53.218;6.564;2022-09-13T15:20:23;100725.75;;;19.68;55.18
56456;BME280;42354;53.218;6.564;2022-09-13T15:22:49;100702.97;;;19.68;55.40
56456;BME280;42354;53.218;6.564;2022-09-13T15:25:23;100690.16;;;19.68;55.32
56456;BME280;42354;53.218;6.564;2022-09-13T15:27:50;100713.94;;;19.68;55.11